Sylvan Lake, Michigan
Current Conditions -  °F | °C
As of 6:53 PM on Saturday 25 Oct 2014 (Local Time) from KPTK Reporting Station
Clear Clear  
Wind Chill: 59°   Ceiling: Unl
Heat Index: 59°   Visibility: 10mi
Dew Point: 32°   Wind: 18mph
Humidity: 36%   Direction: 280°W
Pressure: 29.76"   Gusts: NA
Location:  42.6112°N, 83.3377°W
Report Text: KPTK 252253Z 28016KT 10SM CLR 15/00 A2976 RMK AO2 PK WND 31029/2221 SLP076 T01500000
Loading
Personal Weather Stations






























Interactive Weather Map New forecast layout! Learn more

10-Day Weather Forecast

Advertisements
Track Severe Weather on mobile